Time;durP1;ratioP1;P1;durP2;ratioP2;P2;SDS_P1;SDS_P2;PMS_P1;PMS_P2;Temp;Humidity;BMP_temperature;BMP_pressure;BME280_temperature;BME280_humidity;BME280_pressure;Samples;Min_cycle;Max_cycle;Signal;HPM_P1;HPM_P2
2021/08/18 00:00:01;;;;;;;12.73;5.18;;;26.00;96.70;;;;;;5000731;28;20050;-76
2021/08/18 00:02:31;;;;;;;11.73;4.65;;;26.10;96.70;;;;;;4997110;28;20538;-76
2021/08/18 00:05:01;;;;;;;14.23;5.35;;;26.10;96.70;;;;;;4979932;28;20639;-76
2021/08/18 00:07:29;;;;;;;14.55;5.50;;;26.10;96.70;;;;;;5001602;28;20101;-76
2021/08/18 00:09:57;;;;;;;11.13;4.70;;;26.00;96.70;;;;;;4998427;28;20053;-76
2021/08/18 00:12:25;;;;;;;13.80;5.22;;;25.90;96.70;;;;;;5001531;28;20045;-76
2021/08/18 00:14:54;;;;;;;15.02;5.35;;;25.80;96.70;;;;;;5001723;28;20164;-76
2021/08/18 00:17:22;;;;;;;11.95;4.93;;;25.90;96.70;;;;;;5000791;28;20501;-76
2021/08/18 00:19:50;;;;;;;10.80;4.40;;;26.00;96.70;;;;;;4992689;28;20518;-76
2021/08/18 00:22:20;;;;;;;16.65;5.65;;;26.00;96.70;;;;;;5013089;28;20530;-75
2021/08/18 00:24:47;;;;;;;10.75;4.45;;;26.00;96.70;;;;;;4997121;28;20381;-76
2021/08/18 00:27:16;;;;;;;10.77;4.35;;;25.90;96.70;;;;;;4983097;28;20042;-75
2021/08/18 00:29:45;;;;;;;9.75;4.22;;;25.90;96.70;;;;;;4986257;28;20070;-75
2021/08/18 00:32:13;;;;;;;11.05;4.70;;;25.80;96.70;;;;;;5000256;28;20042;-75
2021/08/18 00:34:41;;;;;;;12.15;4.65;;;25.80;96.70;;;;;;4981878;28;20039;-75
2021/08/18 00:37:09;;;;;;;11.02;4.45;;;25.70;96.70;;;;;;5001709;28;20037;-75
2021/08/18 00:39:39;;;;;;;12.23;4.82;;;25.60;96.70;;;;;;5001323;28;20046;-75
2021/08/18 00:42:07;;;;;;;9.85;4.53;;;25.80;96.70;;;;;;4998714;28;20064;-75
2021/08/18 00:44:35;;;;;;;9.57;4.32;;;25.70;96.70;;;;;;5001378;28;20037;-75
2021/08/18 00:47:05;;;;;;;11.00;4.30;;;25.60;96.70;;;;;;5005245;28;20228;-75
2021/08/18 00:49:34;;;;;;;9.40;4.13;;;25.60;96.70;;;;;;5005928;28;20059;-75
2021/08/18 00:52:03;;;;;;;8.48;3.90;;;25.60;96.70;;;;;;4986758;28;20041;-75
2021/08/18 00:54:52;;;;;;;8.90;4.70;;;25.60;96.70;;;;;;5006341;28;20159;-76
2021/08/18 00:57:20;;;;;;;10.05;4.70;;;25.60;96.70;;;;;;5003147;28;20125;-75
2021/08/18 00:59:49;;;;;;;7.38;3.97;;;25.50;96.70;;;;;;5001702;28;20034;-75
2021/08/18 01:02:18;;;;;;;8.32;4.22;;;25.40;96.70;;;;;;4998719;28;20421;-76
2021/08/18 01:04:48;;;;;;;12.82;4.88;;;25.50;96.70;;;;;;4988142;28;20038;-75
2021/08/18 01:07:16;;;;;;;12.27;4.63;;;25.40;96.70;;;;;;5001665;28;20041;-76
2021/08/18 01:09:44;;;;;;;10.80;4.25;;;25.40;96.70;;;;;;5004821;28;20049;-78
2021/08/18 01:12:14;;;;;;;8.23;4.28;;;25.50;96.70;;;;;;5004684;28;20124;-75
2021/08/18 01:14:42;;;;;;;10.13;4.13;;;25.40;96.70;;;;;;5004862;28;20038;-76
2021/08/18 01:17:12;;;;;;;8.65;4.40;;;25.30;96.70;;;;;;4999410;28;20034;-75
2021/08/18 01:19:40;;;;;;;10.32;3.95;;;25.30;96.70;;;;;;5002815;28;20157;-75
2021/08/18 01:22:09;;;;;;;8.38;4.45;;;25.20;96.70;;;;;;5019511;28;20072;-75
2021/08/18 01:24:37;;;;;;;12.30;4.30;;;25.10;96.70;;;;;;5002853;28;20397;-75
2021/08/18 01:27:06;;;;;;;9.25;3.70;;;25.10;96.70;;;;;;5004059;28;20042;-75
2021/08/18 01:29:35;;;;;;;8.30;3.78;;;25.10;96.70;;;;;;5001250;28;20377;-75
2021/08/18 01:32:05;;;;;;;9.55;4.45;;;25.20;96.70;;;;;;4998018;28;20111;-75
2021/08/18 01:34:35;;;;;;;10.43;4.22;;;25.30;96.70;;;;;;5003828;28;20040;-75
2021/08/18 01:37:04;;;;;;;9.52;4.38;;;25.20;96.70;;;;;;5001782;28;20038;-75
2021/08/18 01:39:32;;;;;;;9.32;4.45;;;25.20;96.70;;;;;;5004503;28;20122;-75
2021/08/18 01:42:00;;;;;;;10.57;4.00;;;25.10;96.70;;;;;;5001843;28;20058;-76
2021/08/18 01:44:29;;;;;;;12.93;3.65;;;25.00;96.70;;;;;;5004494;28;20602;-76
2021/08/18 01:46:59;;;;;;;14.40;4.25;;;25.10;96.70;;;;;;5003107;28;20475;-75
2021/08/18 01:49:28;;;;;;;9.82;3.85;;;25.10;96.70;;;;;;5003434;28;20045;-75
2021/08/18 01:51:57;;;;;;;11.38;4.47;;;25.10;96.70;;;;;;4997270;28;20049;-75
2021/08/18 01:54:31;;;;;;;8.13;3.80;;;25.20;96.70;;;;;;5003324;28;20244;-75
2021/08/18 01:56:59;;;;;;;7.90;4.18;;;25.20;96.70;;;;;;5005261;28;20058;-75
2021/08/18 01:59:49;;;;;;;7.40;3.92;;;25.10;96.70;;;;;;4999136;28;20511;-75
2021/08/18 02:02:19;;;;;;;9.73;4.15;;;25.10;96.70;;;;;;5005879;28;20046;-75
2021/08/18 02:04:47;;;;;;;7.38;3.63;;;24.90;96.70;;;;;;5004935;28;20069;-75
2021/08/18 02:07:16;;;;;;;12.50;4.47;;;24.80;96.70;;;;;;4998106;28;20058;-75
2021/08/18 02:09:45;;;;;;;9.65;4.03;;;24.80;96.70;;;;;;4986947;28;20152;-75
2021/08/18 02:12:15;;;;;;;11.45;4.32;;;24.80;96.70;;;;;;4982950;28;20046;-75
2021/08/18 02:14:44;;;;;;;8.85;4.75;;;24.90;96.70;;;;;;4998336;28;20042;-75
2021/08/18 02:17:16;;;;;;;8.90;4.00;;;24.90;96.70;;;;;;5004588;28;20041;-75
2021/08/18 02:19:49;;;;;;;7.85;4.25;;;24.90;96.70;;;;;;5003884;28;20150;-76
2021/08/18 02:22:20;;;;;;;14.48;4.93;;;24.70;96.70;;;;;;5001298;28;20049;-75
2021/08/18 02:24:50;;;;;;;12.30;4.85;;;24.70;96.70;;;;;;5001028;28;20057;-75
2021/08/18 02:27:20;;;;;;;12.95;4.90;;;24.80;96.70;;;;;;5000708;28;20088;-75
2021/08/18 02:29:50;;;;;;;9.75;4.53;;;24.70;96.70;;;;;;4998012;28;20038;-75
2021/08/18 02:32:20;;;;;;;10.27;4.05;;;24.70;96.70;;;;;;4998247;28;20137;-75
2021/08/18 02:34:51;;;;;;;9.90;4.22;;;24.70;96.70;;;;;;5004374;28;20194;-75
2021/08/18 02:37:27;;;;;;;8.35;3.95;;;24.60;96.70;;;;;;5044631;23;20172;-75
2021/08/18 02:40:11;;;;;;;7.68;3.88;;;24.50;96.70;;;;;;5008113;28;20041;-75
2021/08/18 02:42:56;;;;;;;11.35;4.90;;;24.40;96.70;;;;;;4991090;28;20145;-74
2021/08/18 02:45:35;;;;;;;9.18;4.15;;;24.30;96.70;;;;;;5023999;28;20043;-76
2021/08/18 02:48:07;;;;;;;11.60;4.30;;;24.30;96.70;;;;;;5003957;28;20069;-76
2021/08/18 02:50:37;;;;;;;12.05;4.72;;;24.40;96.70;;;;;;4971963;28;20165;-76
2021/08/18 02:53:07;;;;;;;10.05;4.20;;;24.40;96.70;;;;;;4989842;28;20603;-76
2021/08/18 02:55:38;;;;;;;12.70;4.53;;;24.40;96.70;;;;;;4988324;28;20594;-75
2021/08/18 02:58:08;;;;;;;6.63;3.97;;;24.30;96.70;;;;;;4986205;28;20065;-74
2021/08/18 03:00:37;;;;;;;14.65;4.97;;;24.30;96.70;;;;;;5005496;28;20038;-74
2021/08/18 03:03:07;;;;;;;10.02;4.35;;;24.10;96.70;;;;;;4973476;28;20073;-74
2021/08/18 03:05:39;;;;;;;9.48;4.45;;;24.10;96.70;;;;;;5004479;28;20504;-74
2021/08/18 03:08:09;;;;;;;10.02;4.63;;;24.20;96.70;;;;;;4991389;28;20089;-74
2021/08/18 03:10:38;;;;;;;10.43;4.80;;;24.00;96.70;;;;;;5013845;28;20052;-74
2021/08/18 03:13:06;;;;;;;7.85;4.15;;;24.00;96.70;;;;;;4988266;28;20046;-74
2021/08/18 03:15:34;;;;;;;8.65;4.40;;;24.10;96.70;;;;;;4988274;28;20127;-74
2021/08/18 03:18:03;;;;;;;10.27;4.00;;;23.90;96.70;;;;;;5024485;28;20057;-74
2021/08/18 03:20:32;;;;;;;9.80;4.43;;;23.80;96.70;;;;;;4987046;28;20152;-73
2021/08/18 03:23:03;;;;;;;10.70;4.93;;;23.70;96.70;;;;;;5006124;28;20104;-73
2021/08/18 03:25:32;;;;;;;10.90;4.68;;;23.70;96.70;;;;;;4995818;28;20385;-75
2021/08/18 03:28:54;;;;;;;7.13;4.78;;;23.70;96.70;;;;;;5007089;28;20041;-75
2021/08/18 03:31:23;;;;;;;8.60;4.40;;;23.80;96.70;;;;;;4978294;28;20042;-75
2021/08/18 03:33:51;;;;;;;8.02;4.57;;;23.70;96.70;;;;;;5000827;28;20051;-76
2021/08/18 03:36:19;;;;;;;6.93;4.30;;;23.70;96.70;;;;;;4990329;28;20223;-75
2021/08/18 03:38:49;;;;;;;10.70;4.75;;;23.80;96.70;;;;;;5006168;28;20123;-75
2021/08/18 03:41:18;;;;;;;9.57;3.90;;;23.90;96.70;;;;;;5002088;28;20045;-75
2021/08/18 03:43:48;;;;;;;6.47;3.63;;;23.80;96.70;;;;;;4988295;28;20594;-75
2021/08/18 03:46:18;;;;;;;9.98;4.07;;;23.90;96.70;;;;;;4985719;28;20388;-75
2021/08/18 03:48:48;;;;;;;11.48;4.40;;;23.80;96.70;;;;;;4988200;28;20520;-75
2021/08/18 03:51:16;;;;;;;12.43;4.57;;;23.70;96.70;;;;;;4975053;28;20519;-75
2021/08/18 03:53:45;;;;;;;10.60;4.68;;;23.70;96.70;;;;;;5017658;28;20037;-74
2021/08/18 03:56:16;;;;;;;9.60;4.80;;;23.70;96.70;;;;;;5011242;28;20038;-75
2021/08/18 03:58:45;;;;;;;10.48;4.30;;;23.70;96.70;;;;;;5016487;28;20064;-75
2021/08/18 04:01:13;;;;;;;7.03;4.22;;;23.60;96.70;;;;;;5003172;28;20037;-75
2021/08/18 04:03:41;;;;;;;8.40;4.15;;;23.70;96.70;;;;;;4970927;28;20152;-75
2021/08/18 04:06:10;;;;;;;9.45;4.88;;;23.80;96.70;;;;;;5020702;28;20045;-75
2021/08/18 04:08:39;;;;;;;8.40;4.25;;;23.60;96.70;;;;;;5017201;28;20053;-75
2021/08/18 04:11:10;;;;;;;7.60;4.20;;;23.40;96.70;;;;;;5022147;28;20069;-75
2021/08/18 04:13:41;;;;;;;8.23;3.70;;;23.50;96.70;;;;;;5003367;28;20565;-75
2021/08/18 04:16:09;;;;;;;7.28;3.97;;;23.60;96.70;;;;;;4982743;28;20041;-75
2021/08/18 04:18:38;;;;;;;9.23;4.38;;;23.60;96.70;;;;;;5004248;28;20132;-75
2021/08/18 04:21:06;;;;;;;8.75;4.18;;;23.70;96.70;;;;;;5005179;28;20092;-75
2021/08/18 04:23:35;;;;;;;6.78;3.92;;;23.70;96.70;;;;;;5003326;28;20044;-75
2021/08/18 04:26:03;;;;;;;8.18;4.45;;;23.60;96.70;;;;;;5004269;28;20153;-75
2021/08/18 04:28:31;;;;;;;9.95;4.10;;;23.60;96.70;;;;;;4971416;28;20416;-74
2021/08/18 04:31:02;;;;;;;9.90;4.20;;;23.60;96.70;;;;;;5000929;28;20054;-75
2021/08/18 04:33:31;;;;;;;12.48;4.60;;;23.60;96.70;;;;;;4988343;28;20060;-75
2021/08/18 04:35:59;;;;;;;10.05;4.28;;;23.60;96.70;;;;;;5024450;28;20141;-76
2021/08/18 04:38:28;;;;;;;8.80;4.38;;;23.70;96.70;;;;;;4989824;28;20474;-75
2021/08/18 04:40:56;;;;;;;7.03;4.20;;;23.60;96.70;;;;;;5016531;28;20041;-75
2021/08/18 04:43:24;;;;;;;7.20;3.58;;;23.50;96.70;;;;;;5002849;28;20048;-75
2021/08/18 04:45:52;;;;;;;11.07;4.60;;;23.60;96.70;;;;;;4987523;28;20042;-75
2021/08/18 04:48:22;;;;;;;8.63;4.25;;;23.60;96.70;;;;;;4986379;28;20076;-75
2021/08/18 04:50:50;;;;;;;9.35;4.40;;;23.60;96.70;;;;;;4970967;28;20626;-75
2021/08/18 04:53:19;;;;;;;10.93;4.55;;;23.40;96.70;;;;;;4985405;28;20053;-76
2021/08/18 04:55:47;;;;;;;11.68;4.70;;;23.40;96.70;;;;;;4989357;28;20457;-75
2021/08/18 04:58:15;;;;;;;10.38;4.38;;;23.60;96.70;;;;;;4985085;28;20230;-75
2021/08/18 05:00:43;;;;;;;8.55;4.15;;;23.50;96.70;;;;;;4986828;28;20053;-75
2021/08/18 05:03:13;;;;;;;6.35;3.78;;;23.60;96.70;;;;;;5005052;28;20049;-75
2021/08/18 05:05:43;;;;;;;8.93;4.20;;;23.70;96.70;;;;;;4985532;28;20199;-75
2021/08/18 05:08:11;;;;;;;6.75;4.43;;;23.70;96.70;;;;;;4985636;28;20308;-75
2021/08/18 05:10:41;;;;;;;12.55;4.85;;;23.60;96.70;;;;;;4982844;28;20677;-75
2021/08/18 05:13:09;;;;;;;12.00;4.72;;;23.50;96.70;;;;;;5002162;28;20096;-75
2021/08/18 05:15:38;;;;;;;8.65;4.20;;;23.50;96.70;;;;;;4985195;28;20497;-75
2021/08/18 05:18:06;;;;;;;8.77;3.88;;;23.40;96.70;;;;;;4985987;28;20049;-75
2021/08/18 05:20:35;;;;;;;10.52;4.75;;;23.60;96.70;;;;;;4985875;28;20132;-74
2021/08/18 05:23:05;;;;;;;10.20;4.35;;;23.80;96.70;;;;;;4987199;28;20073;-75
2021/08/18 05:25:33;;;;;;;8.02;4.20;;;23.80;96.70;;;;;;5001626;28;20041;-74
2021/08/18 05:28:05;;;;;;;9.25;4.43;;;23.90;96.70;;;;;;5004688;28;20474;-74
2021/08/18 05:30:33;;;;;;;7.80;4.30;;;23.90;96.70;;;;;;5019419;28;20531;-74
2021/08/18 05:33:01;;;;;;;8.98;4.63;;;23.90;96.70;;;;;;5005513;28;20053;-75
2021/08/18 05:35:29;;;;;;;8.38;4.30;;;23.90;96.70;;;;;;4979996;28;20049;-75
2021/08/18 05:37:57;;;;;;;9.45;3.90;;;23.90;96.70;;;;;;4990720;28;20468;-75
2021/08/18 05:40:27;;;;;;;7.47;4.55;;;23.80;96.70;;;;;;4992215;28;20038;-76
2021/08/18 05:42:55;;;;;;;11.38;4.30;;;23.60;96.70;;;;;;4989465;28;20108;-75
2021/08/18 05:45:24;;;;;;;11.23;4.38;;;23.50;96.70;;;;;;4988116;28;20044;-75
2021/08/18 05:47:52;;;;;;;8.85;4.72;;;23.40;96.70;;;;;;4966072;28;20133;-75
2021/08/18 05:50:21;;;;;;;6.00;4.18;;;23.60;96.70;;;;;;4989135;28;20048;-75
2021/08/18 05:52:49;;;;;;;9.68;4.80;;;23.70;96.70;;;;;;4990211;28;20042;-75
2021/08/18 05:55:17;;;;;;;8.48;4.20;;;23.70;96.70;;;;;;4990441;28;20042;-75
2021/08/18 05:57:47;;;;;;;15.93;5.30;;;23.80;96.70;;;;;;4986733;28;20053;-75
2021/08/18 06:00:16;;;;;;;12.77;5.15;;;23.80;96.70;;;;;;4990190;28;20517;-75
2021/08/18 06:02:44;;;;;;;9.35;5.35;;;23.90;96.70;;;;;;4993626;28;20049;-75
2021/08/18 06:05:13;;;;;;;9.23;4.90;;;23.80;96.70;;;;;;5004975;28;20034;-75
2021/08/18 06:07:41;;;;;;;10.82;4.90;;;23.70;96.70;;;;;;5007049;28;20443;-75
2021/08/18 06:10:09;;;;;;;9.50;4.15;;;23.90;96.70;;;;;;5007620;28;20474;-75
2021/08/18 06:12:38;;;;;;;8.88;4.47;;;24.10;96.70;;;;;;4989242;28;20045;-75
2021/08/18 06:15:09;;;;;;;7.13;4.55;;;24.20;96.70;;;;;;4975684;28;20050;-75
2021/08/18 06:17:37;;;;;;;7.30;4.43;;;24.30;96.70;;;;;;5005810;28;20076;-75
2021/08/18 06:20:07;;;;;;;9.07;4.45;;;24.30;96.70;;;;;;4984588;28;20054;-75
2021/08/18 06:22:35;;;;;;;7.82;4.13;;;24.40;96.70;;;;;;5006896;28;20152;-75
2021/08/18 06:25:04;;;;;;;7.93;4.28;;;24.40;96.70;;;;;;4986485;28;20447;-75
2021/08/18 06:27:33;;;;;;;7.50;4.07;;;24.50;96.70;;;;;;5004490;28;20038;-76
2021/08/18 06:30:01;;;;;;;8.02;4.38;;;24.50;96.70;;;;;;5007692;28;20049;-76
2021/08/18 06:32:30;;;;;;;9.60;5.03;;;24.40;96.70;;;;;;5020273;28;20137;-75
2021/08/18 06:34:59;;;;;;;8.18;4.00;;;24.40;96.70;;;;;;5004728;28;20053;-76
2021/08/18 06:37:37;;;;;;;12.27;5.03;;;24.30;96.70;;;;;;4987700;28;20049;-75
2021/08/18 06:40:07;;;;;;;10.27;4.82;;;24.40;96.70;;;;;;4976168;28;20042;-77
2021/08/18 06:42:40;;;;;;;7.70;4.47;;;24.60;96.70;;;;;;4998222;28;20196;-75
2021/08/18 06:45:11;;;;;;;10.75;4.57;;;24.60;96.70;;;;;;5003585;28;20508;-75
2021/08/18 06:47:40;;;;;;;9.30;3.90;;;24.60;96.70;;;;;;4987725;28;20070;-75
2021/08/18 06:50:09;;;;;;;7.28;4.43;;;24.60;96.70;;;;;;4989475;28;20137;-79
2021/08/18 06:52:38;;;;;;;12.23;4.38;;;24.70;96.70;;;;;;5004240;28;20045;-76
2021/08/18 06:55:07;;;;;;;9.35;3.80;;;24.90;96.70;;;;;;5001967;28;20050;-76
2021/08/18 06:57:35;;;;;;;9.07;4.20;;;24.90;96.70;;;;;;5004888;28;20441;-75
2021/08/18 07:00:05;;;;;;;11.38;4.05;;;25.00;96.70;;;;;;5025064;28;20049;-75
2021/08/18 07:02:33;;;;;;;18.52;5.10;;;25.00;96.70;;;;;;4995161;28;20107;-74
2021/08/18 07:05:06;;;;;;;6.15;3.10;;;25.20;96.70;;;;;;5012477;28;20045;-77
2021/08/18 07:07:35;;;;;;;10.30;3.75;;;25.30;96.70;;;;;;4992790;28;20074;-76
2021/08/18 07:10:03;;;;;;;6.13;3.38;;;25.20;96.70;;;;;;5014789;28;20133;-77
2021/08/18 07:12:32;;;;;;;7.22;3.63;;;25.30;96.70;;;;;;5003366;28;20163;-78
2021/08/18 07:15:01;;;;;;;6.07;3.67;;;25.40;96.70;;;;;;4990644;28;20046;-76
2021/08/18 07:17:29;;;;;;;6.60;3.15;;;25.50;96.70;;;;;;5001671;28;20053;-77
2021/08/18 07:19:57;;;;;;;13.98;11.38;;;25.50;96.70;;;;;;5004427;28;20794;-80
2021/08/18 07:22:27;;;;;;;15.63;7.57;;;25.60;96.70;;;;;;4976988;28;20092;-80
2021/08/18 07:24:56;;;;;;;8.48;5.43;;;25.60;96.70;;;;;;4987506;28;20054;-80
2021/08/18 07:27:24;;;;;;;10.77;5.57;;;25.60;96.70;;;;;;4987726;28;20439;-81
2021/08/18 07:29:53;;;;;;;8.30;4.32;;;25.80;96.70;;;;;;5006017;28;20042;-81
2021/08/18 07:32:26;;;;;;;11.30;8.77;;;25.80;96.70;;;;;;5004412;28;20100;-80
2021/08/18 07:34:54;;;;;;;12.82;4.97;;;25.90;96.70;;;;;;4988138;28;20065;-80
2021/08/18 07:37:23;;;;;;;12.30;6.50;;;25.90;96.70;;;;;;5004864;28;20145;-79
2021/08/18 07:39:54;;;;;;;8.18;4.13;;;26.00;96.70;;;;;;5003132;28;20133;-76
2021/08/18 07:42:23;;;;;;;8.45;3.70;;;26.00;96.70;;;;;;5003743;28;20119;-75
2021/08/18 07:44:51;;;;;;;6.88;3.55;;;26.00;96.70;;;;;;4984930;28;20538;-76
2021/08/18 07:47:20;;;;;;;5.25;3.30;;;26.10;96.70;;;;;;4987927;28;20041;-74
2021/08/18 07:49:48;;;;;;;6.53;3.25;;;26.20;96.70;;;;;;5002646;28;20037;-77
2021/08/18 07:52:16;;;;;;;9.30;3.78;;;26.20;96.70;;;;;;5003508;28;20042;-77
2021/08/18 07:54:46;;;;;;;6.93;2.75;;;26.20;96.70;;;;;;5011026;28;20073;-77
2021/08/18 07:57:16;;;;;;;11.52;3.00;;;26.30;96.70;;;;;;4995550;28;20990;-75
2021/08/18 07:59:44;;;;;;;8.07;3.45;;;26.40;96.70;;;;;;4991794;28;20164;-76
2021/08/18 08:02:17;;;;;;;4.65;2.88;;;26.50;96.70;;;;;;4995624;28;20539;-75
2021/08/18 08:04:46;;;;;;;5.97;2.50;;;26.60;96.70;;;;;;4983584;28;20159;-76
2021/08/18 08:07:15;;;;;;;5.85;2.67;;;26.60;96.70;;;;;;5004557;28;20065;-76
2021/08/18 08:09:43;;;;;;;5.25;2.45;;;26.60;96.70;;;;;;5008555;28;20408;-77
2021/08/18 08:12:12;;;;;;;6.53;2.50;;;26.70;96.70;;;;;;4990065;28;20108;-77
2021/08/18 08:14:41;;;;;;;4.43;2.50;;;26.80;96.70;;;;;;5005254;28;20046;-76
2021/08/18 08:17:10;;;;;;;4.78;2.53;;;26.80;96.70;;;;;;5004035;28;20030;-77
2021/08/18 08:19:38;;;;;;;4.65;2.28;;;26.90;96.70;;;;;;5001704;28;20412;-76
2021/08/18 08:22:07;;;;;;;5.90;2.70;;;27.00;96.50;;;;;;4995372;28;20073;-76
2021/08/18 08:24:35;;;;;;;7.22;2.65;;;27.10;95.90;;;;;;5008332;28;20038;-77
2021/08/18 08:27:04;;;;;;;4.05;2.38;;;27.20;95.70;;;;;;5003259;28;20530;-78
2021/08/18 08:29:32;;;;;;;3.28;1.95;;;27.30;95.40;;;;;;4991272;28;20041;-76
2021/08/18 08:32:02;;;;;;;3.72;2.00;;;27.40;94.20;;;;;;4983357;28;20057;-76
2021/08/18 08:34:31;;;;;;;5.28;1.90;;;27.50;94.10;;;;;;4997654;28;20050;-77
2021/08/18 08:37:01;;;;;;;3.35;1.90;;;27.50;93.40;;;;;;4970595;28;20042;-76
2021/08/18 08:39:29;;;;;;;3.85;1.90;;;27.60;93.50;;;;;;4991614;28;20440;-76
2021/08/18 08:41:57;;;;;;;3.03;1.90;;;27.80;93.00;;;;;;5000018;28;20042;-78
2021/08/18 08:44:30;;;;;;;4.55;1.65;;;27.80;92.00;;;;;;4985628;28;20034;-79
2021/08/18 08:46:59;;;;;;;2.67;1.73;;;28.00;91.50;;;;;;5003823;28;20435;-80
2021/08/18 08:49:29;;;;;;;3.33;1.98;;;28.00;90.80;;;;;;4970932;28;20050;-81
2021/08/18 08:51:57;;;;;;;5.32;1.73;;;28.10;89.80;;;;;;5006276;28;20077;-79
2021/08/18 08:54:25;;;;;;;6.53;2.25;;;28.10;89.50;;;;;;4987883;28;20500;-78
2021/08/18 08:56:53;;;;;;;4.93;1.80;;;28.10;89.50;;;;;;5020671;28;20049;-82
2021/08/18 08:59:22;;;;;;;2.50;1.40;;;28.20;89.40;;;;;;5005842;28;20416;-78
2021/08/18 09:02:01;;;;;;;6.13;1.60;;;28.30;89.00;;;;;;5020896;28;20496;-82
